sensor_id;sensor_type;location;lat;lon;timestamp;P1;durP1;ratioP1;P2;durP2;ratioP2
67798;SDS011;54596;43.216;27.904;2023-02-11T00:01:59;36.97;;;23.52;;
67798;SDS011;54596;43.216;27.904;2023-02-11T00:04:25;40.10;;;22.60;;
67798;SDS011;54596;43.216;27.904;2023-02-11T00:06:50;33.03;;;14.02;;
67798;SDS011;54596;43.216;27.904;2023-02-11T00:09:16;33.35;;;13.85;;
67798;SDS011;54596;43.216;27.904;2023-02-11T00:11:41;36.92;;;14.40;;
67798;SDS011;54596;43.216;27.904;2023-02-11T00:14:08;36.58;;;14.20;;
67798;SDS011;54596;43.216;27.904;2023-02-11T00:16:34;32.72;;;14.15;;
67798;SDS011;54596;43.216;27.904;2023-02-11T00:19:00;34.60;;;14.13;;
67798;SDS011;54596;43.216;27.904;2023-02-11T00:21:26;39.72;;;23.55;;
67798;SDS011;54596;43.216;27.904;2023-02-11T00:23:52;35.67;;;14.80;;
67798;SDS011;54596;43.216;27.904;2023-02-11T00:26:22;42.90;;;16.40;;
67798;SDS011;54596;43.216;27.904;2023-02-11T00:28:50;42.63;;;18.75;;
67798;SDS011;54596;43.216;27.904;2023-02-11T00:31:17;54.67;;;19.02;;
67798;SDS011;54596;43.216;27.904;2023-02-11T00:33:44;41.10;;;18.10;;
67798;SDS011;54596;43.216;27.904;2023-02-11T00:36:15;45.05;;;28.20;;
67798;SDS011;54596;43.216;27.904;2023-02-11T00:38:42;39.67;;;16.80;;
67798;SDS011;54596;43.216;27.904;2023-02-11T00:41:09;39.88;;;16.77;;
67798;SDS011;54596;43.216;27.904;2023-02-11T00:43:35;43.97;;;26.13;;
67798;SDS011;54596;43.216;27.904;2023-02-11T00:46:01;39.45;;;17.08;;
67798;SDS011;54596;43.216;27.904;2023-02-11T00:48:26;38.88;;;17.05;;
67798;SDS011;54596;43.216;27.904;2023-02-11T00:50:53;40.03;;;17.05;;
67798;SDS011;54596;43.216;27.904;2023-02-11T00:53:19;41.63;;;17.35;;
67798;SDS011;54596;43.216;27.904;2023-02-11T00:55:45;43.50;;;17.35;;
67798;SDS011;54596;43.216;27.904;2023-02-11T00:58:11;45.40;;;18.20;;
67798;SDS011;54596;43.216;27.904;2023-02-11T01:00:36;44.60;;;18.83;;
67798;SDS011;54596;43.216;27.904;2023-02-11T01:03:02;42.63;;;18.30;;
67798;SDS011;54596;43.216;27.904;2023-02-11T01:05:27;48.60;;;30.10;;
67798;SDS011;54596;43.216;27.904;2023-02-11T01:07:53;49.20;;;19.77;;
67798;SDS011;54596;43.216;27.904;2023-02-11T01:10:19;48.30;;;19.67;;
67798;SDS011;54596;43.216;27.904;2023-02-11T01:12:44;53.15;;;19.77;;
67798;SDS011;54596;43.216;27.904;2023-02-11T01:15:11;43.15;;;18.98;;
67798;SDS011;54596;43.216;27.904;2023-02-11T01:17:39;47.70;;;19.38;;
67798;SDS011;54596;43.216;27.904;2023-02-11T01:20:05;43.20;;;19.05;;
67798;SDS011;54596;43.216;27.904;2023-02-11T01:22:32;43.25;;;19.10;;
67798;SDS011;54596;43.216;27.904;2023-02-11T01:25:03;47.72;;;18.60;;
67798;SDS011;54596;43.216;27.904;2023-02-11T01:27:30;52.83;;;18.85;;
67798;SDS011;54596;43.216;27.904;2023-02-11T01:29:55;46.15;;;18.70;;
67798;SDS011;54596;43.216;27.904;2023-02-11T01:32:21;46.28;;;17.88;;
67798;SDS011;54596;43.216;27.904;2023-02-11T01:34:46;41.88;;;17.23;;
67798;SDS011;54596;43.216;27.904;2023-02-11T01:37:12;56.83;;;19.13;;
67798;SDS011;54596;43.216;27.904;2023-02-11T01:39:37;43.85;;;17.23;;
67798;SDS011;54596;43.216;27.904;2023-02-11T01:42:03;41.58;;;16.88;;
67798;SDS011;54596;43.216;27.904;2023-02-11T01:44:30;46.13;;;18.13;;
67798;SDS011;54596;43.216;27.904;2023-02-11T01:46:59;39.75;;;16.90;;
67798;SDS011;54596;43.216;27.904;2023-02-11T01:49:26;43.90;;;16.52;;
67798;SDS011;54596;43.216;27.904;2023-02-11T01:54:42;46.72;;;26.95;;
67798;SDS011;54596;43.216;27.904;2023-02-11T01:57:29;38.10;;;16.33;;
67798;SDS011;54596;43.216;27.904;2023-02-11T02:00:16;38.50;;;15.75;;
67798;SDS011;54596;43.216;27.904;2023-02-11T02:03:18;36.45;;;15.82;;
67798;SDS011;54596;43.216;27.904;2023-02-11T02:08:32;44.42;;;16.90;;
67798;SDS011;54596;43.216;27.904;2023-02-11T02:11:03;41.85;;;16.05;;
67798;SDS011;54596;43.216;27.904;2023-02-11T02:13:29;48.78;;;26.77;;
67798;SDS011;54596;43.216;27.904;2023-02-11T02:15:58;34.85;;;15.90;;
67798;SDS011;54596;43.216;27.904;2023-02-11T02:18:35;43.22;;;17.30;;
67798;SDS011;54596;43.216;27.904;2023-02-11T02:40:08;41.22;;;17.17;;
67798;SDS011;54596;43.216;27.904;2023-02-11T02:42:39;39.90;;;16.85;;
67798;SDS011;54596;43.216;27.904;2023-02-11T02:45:06;37.50;;;16.70;;
67798;SDS011;54596;43.216;27.904;2023-02-11T02:47:34;37.90;;;16.40;;
67798;SDS011;54596;43.216;27.904;2023-02-11T02:49:59;34.00;;;15.02;;
67798;SDS011;54596;43.216;27.904;2023-02-11T03:01:03;41.78;;;17.30;;
67798;SDS011;54596;43.216;27.904;2023-02-11T03:03:51;39.10;;;16.17;;
67798;SDS011;54596;43.216;27.904;2023-02-11T03:09:06;36.83;;;17.60;;
67798;SDS011;54596;43.216;27.904;2023-02-11T03:11:37;44.50;;;17.27;;
67798;SDS011;54596;43.216;27.904;2023-02-11T03:14:05;38.17;;;17.05;;
67798;SDS011;54596;43.216;27.904;2023-02-11T03:16:34;44.55;;;17.88;;
67798;SDS011;54596;43.216;27.904;2023-02-11T03:19:09;40.47;;;17.83;;
67798;SDS011;54596;43.216;27.904;2023-02-11T03:21:39;41.50;;;17.92;;
67798;SDS011;54596;43.216;27.904;2023-02-11T03:24:07;44.75;;;19.60;;
67798;SDS011;54596;43.216;27.904;2023-02-11T03:26:55;43.38;;;19.40;;
67798;SDS011;54596;43.216;27.904;2023-02-11T03:32:04;48.00;;;31.58;;
67798;SDS011;54596;43.216;27.904;2023-02-11T03:37:26;41.17;;;17.43;;
67798;SDS011;54596;43.216;27.904;2023-02-11T03:39:59;48.22;;;29.55;;
67798;SDS011;54596;43.216;27.904;2023-02-11T03:42:34;43.28;;;18.67;;
67798;SDS011;54596;43.216;27.904;2023-02-11T03:45:06;47.40;;;30.30;;
67798;SDS011;54596;43.216;27.904;2023-02-11T03:47:35;44.80;;;17.95;;
67798;SDS011;54596;43.216;27.904;2023-02-11T03:50:05;42.10;;;16.98;;
67798;SDS011;54596;43.216;27.904;2023-02-11T03:52:33;36.70;;;16.27;;
67798;SDS011;54596;43.216;27.904;2023-02-11T03:55:01;38.83;;;16.40;;
67798;SDS011;54596;43.216;27.904;2023-02-11T03:57:31;33.72;;;15.20;;
67798;SDS011;54596;43.216;27.904;2023-02-11T03:59:58;32.80;;;15.20;;
67798;SDS011;54596;43.216;27.904;2023-02-11T04:02:26;37.92;;;16.20;;
67798;SDS011;54596;43.216;27.904;2023-02-11T04:04:55;35.28;;;15.68;;
67798;SDS011;54596;43.216;27.904;2023-02-11T04:07:20;37.05;;;15.63;;
67798;SDS011;54596;43.216;27.904;2023-02-11T04:12:31;39.42;;;16.50;;
67798;SDS011;54596;43.216;27.904;2023-02-11T04:14:56;41.78;;;16.33;;
67798;SDS011;54596;43.216;27.904;2023-02-11T04:17:22;39.13;;;15.93;;
67798;SDS011;54596;43.216;27.904;2023-02-11T04:19:48;42.00;;;26.42;;
67798;SDS011;54596;43.216;27.904;2023-02-11T04:22:13;41.95;;;16.45;;
67798;SDS011;54596;43.216;27.904;2023-02-11T04:24:39;37.40;;;16.35;;
67798;SDS011;54596;43.216;27.904;2023-02-11T04:27:04;42.45;;;26.80;;
67798;SDS011;54596;43.216;27.904;2023-02-11T04:29:30;40.15;;;16.20;;
67798;SDS011;54596;43.216;27.904;2023-02-11T04:31:56;36.90;;;15.07;;
67798;SDS011;54596;43.216;27.904;2023-02-11T04:34:21;37.40;;;16.65;;
67798;SDS011;54596;43.216;27.904;2023-02-11T04:36:48;49.15;;;18.90;;
67798;SDS011;54596;43.216;27.904;2023-02-11T04:39:14;63.00;;;21.08;;
67798;SDS011;54596;43.216;27.904;2023-02-11T04:41:39;74.47;;;24.10;;
67798;SDS011;54596;43.216;27.904;2023-02-11T04:44:05;102.28;;;29.67;;
67798;SDS011;54596;43.216;27.904;2023-02-11T04:46:30;92.97;;;27.85;;
67798;SDS011;54596;43.216;27.904;2023-02-11T04:48:56;93.53;;;26.50;;
67798;SDS011;54596;43.216;27.904;2023-02-11T04:51:22;81.72;;;25.00;;
67798;SDS011;54596;43.216;27.904;2023-02-11T04:53:47;78.93;;;24.35;;
67798;SDS011;54596;43.216;27.904;2023-02-11T04:56:13;73.32;;;24.52;;
67798;SDS011;54596;43.216;27.904;2023-02-11T04:58:39;49.35;;;20.90;;
67798;SDS011;54596;43.216;27.904;2023-02-11T05:01:09;54.47;;;20.90;;
67798;SDS011;54596;43.216;27.904;2023-02-11T05:03:36;57.58;;;22.00;;
67798;SDS011;54596;43.216;27.904;2023-02-11T05:06:02;51.90;;;21.20;;
67798;SDS011;54596;43.216;27.904;2023-02-11T05:08:28;42.80;;;18.83;;
67798;SDS011;54596;43.216;27.904;2023-02-11T05:10:53;41.67;;;18.20;;
67798;SDS011;54596;43.216;27.904;2023-02-11T05:13:19;39.15;;;16.58;;
67798;SDS011;54596;43.216;27.904;2023-02-11T05:15:44;44.45;;;17.67;;
67798;SDS011;54596;43.216;27.904;2023-02-11T05:18:10;40.63;;;16.95;;
67798;SDS011;54596;43.216;27.904;2023-02-11T05:20:38;41.95;;;17.65;;
67798;SDS011;54596;43.216;27.904;2023-02-11T05:23:04;45.88;;;17.23;;
67798;SDS011;54596;43.216;27.904;2023-02-11T05:25:29;37.50;;;17.17;;
67798;SDS011;54596;43.216;27.904;2023-02-11T05:27:55;37.42;;;16.75;;
67798;SDS011;54596;43.216;27.904;2023-02-11T05:30:20;41.80;;;18.48;;
67798;SDS011;54596;43.216;27.904;2023-02-11T05:32:46;42.13;;;17.17;;
67798;SDS011;54596;43.216;27.904;2023-02-11T05:35:11;43.65;;;18.30;;
67798;SDS011;54596;43.216;27.904;2023-02-11T05:37:37;45.42;;;17.77;;
67798;SDS011;54596;43.216;27.904;2023-02-11T05:40:03;42.78;;;17.42;;
67798;SDS011;54596;43.216;27.904;2023-02-11T05:42:29;36.95;;;17.05;;
67798;SDS011;54596;43.216;27.904;2023-02-11T05:44:55;42.13;;;18.30;;
67798;SDS011;54596;43.216;27.904;2023-02-11T05:47:20;50.88;;;21.30;;
67798;SDS011;54596;43.216;27.904;2023-02-11T05:49:46;55.75;;;21.63;;
67798;SDS011;54596;43.216;27.904;2023-02-11T05:52:11;46.70;;;20.10;;
67798;SDS011;54596;43.216;27.904;2023-02-11T05:54:37;50.05;;;19.80;;
67798;SDS011;54596;43.216;27.904;2023-02-11T05:57:02;48.88;;;20.13;;
67798;SDS011;54596;43.216;27.904;2023-02-11T05:59:28;46.25;;;21.10;;
67798;SDS011;54596;43.216;27.904;2023-02-11T06:01:53;46.63;;;20.73;;
67798;SDS011;54596;43.216;27.904;2023-02-11T06:04:19;52.22;;;20.65;;
67798;SDS011;54596;43.216;27.904;2023-02-11T06:06:44;49.25;;;20.67;;
67798;SDS011;54596;43.216;27.904;2023-02-11T06:09:10;50.25;;;32.17;;
67798;SDS011;54596;43.216;27.904;2023-02-11T06:11:36;45.00;;;19.08;;
67798;SDS011;54596;43.216;27.904;2023-02-11T06:14:01;42.08;;;17.75;;
67798;SDS011;54596;43.216;27.904;2023-02-11T06:16:27;37.53;;;17.75;;
67798;SDS011;54596;43.216;27.904;2023-02-11T06:18:52;41.67;;;17.98;;
67798;SDS011;54596;43.216;27.904;2023-02-11T06:21:18;38.25;;;17.23;;
67798;SDS011;54596;43.216;27.904;2023-02-11T06:23:43;39.00;;;25.80;;
67798;SDS011;54596;43.216;27.904;2023-02-11T06:26:15;40.50;;;25.10;;
67798;SDS011;54596;43.216;27.904;2023-02-11T06:28:43;39.60;;;25.42;;
67798;SDS011;54596;43.216;27.904;2023-02-11T06:31:09;33.88;;;22.80;;
67798;SDS011;54596;43.216;27.904;2023-02-11T06:33:36;38.42;;;24.23;;
67798;SDS011;54596;43.216;27.904;2023-02-11T06:36:02;34.97;;;23.63;;
67798;SDS011;54596;43.216;27.904;2023-02-11T06:38:28;43.45;;;26.92;;
67798;SDS011;54596;43.216;27.904;2023-02-11T06:40:54;43.00;;;26.73;;
67798;SDS011;54596;43.216;27.904;2023-02-11T06:43:20;46.40;;;27.55;;
67798;SDS011;54596;43.216;27.904;2023-02-11T06:45:50;36.70;;;25.10;;
67798;SDS011;54596;43.216;27.904;2023-02-11T06:48:17;40.95;;;26.27;;
67798;SDS011;54596;43.216;27.904;2023-02-11T06:50:42;41.20;;;26.08;;
67798;SDS011;54596;43.216;27.904;2023-02-11T06:53:08;44.85;;;26.02;;
67798;SDS011;54596;43.216;27.904;2023-02-11T06:55:33;37.60;;;25.95;;
67798;SDS011;54596;43.216;27.904;2023-02-11T06:57:59;35.72;;;23.73;;
67798;SDS011;54596;43.216;27.904;2023-02-11T07:00:24;36.63;;;24.25;;
67798;SDS011;54596;43.216;27.904;2023-02-11T07:02:50;37.75;;;23.02;;
67798;SDS011;54596;43.216;27.904;2023-02-11T07:05:16;35.90;;;22.95;;
67798;SDS011;54596;43.216;27.904;2023-02-11T07:07:41;34.67;;;22.33;;
67798;SDS011;54596;43.216;27.904;2023-02-11T07:10:07;35.72;;;23.40;;
67798;SDS011;54596;43.216;27.904;2023-02-11T07:12:33;37.42;;;24.63;;
67798;SDS011;54596;43.216;27.904;2023-02-11T07:14:58;39.58;;;26.25;;
67798;SDS011;54596;43.216;27.904;2023-02-11T07:17:24;37.90;;;26.05;;
67798;SDS011;54596;43.216;27.904;2023-02-11T07:19:49;38.78;;;26.85;;
67798;SDS011;54596;43.216;27.904;2023-02-11T07:22:15;40.65;;;27.35;;
67798;SDS011;54596;43.216;27.904;2023-02-11T07:24:40;37.30;;;27.52;;
67798;SDS011;54596;43.216;27.904;2023-02-11T07:27:06;37.72;;;26.35;;
67798;SDS011;54596;43.216;27.904;2023-02-11T07:29:31;38.83;;;27.88;;
67798;SDS011;54596;43.216;27.904;2023-02-11T07:31:57;45.55;;;28.42;;
67798;SDS011;54596;43.216;27.904;2023-02-11T07:34:23;40.60;;;30.23;;
67798;SDS011;54596;43.216;27.904;2023-02-11T07:36:49;43.55;;;29.30;;
67798;SDS011;54596;43.216;27.904;2023-02-11T07:39:14;45.35;;;29.05;;
67798;SDS011;54596;43.216;27.904;2023-02-11T07:41:40;47.90;;;29.95;;
67798;SDS011;54596;43.216;27.904;2023-02-11T07:44:06;46.17;;;30.80;;
67798;SDS011;54596;43.216;27.904;2023-02-11T07:46:32;45.50;;;27.77;;
67798;SDS011;54596;43.216;27.904;2023-02-11T07:48:59;46.50;;;28.55;;
67798;SDS011;54596;43.216;27.904;2023-02-11T07:51:26;37.70;;;24.17;;
67798;SDS011;54596;43.216;27.904;2023-02-11T07:53:53;44.10;;;29.25;;
67798;SDS011;54596;43.216;27.904;2023-02-11T07:56:22;33.53;;;23.45;;
67798;SDS011;54596;43.216;27.904;2023-02-11T07:58:48;35.15;;;20.75;;
67798;SDS011;54596;43.216;27.904;2023-02-11T08:01:15;35.38;;;20.92;;
67798;SDS011;54596;43.216;27.904;2023-02-11T08:03:43;36.05;;;22.92;;
67798;SDS011;54596;43.216;27.904;2023-02-11T08:06:13;36.67;;;21.73;;
67798;SDS011;54596;43.216;27.904;2023-02-11T08:08:40;34.53;;;20.87;;
67798;SDS011;54596;43.216;27.904;2023-02-11T08:11:10;33.53;;;22.05;;
67798;SDS011;54596;43.216;27.904;2023-02-11T08:13:56;37.42;;;20.02;;
67798;SDS011;54596;43.216;27.904;2023-02-11T08:16:26;39.63;;;22.85;;
67798;SDS011;54596;43.216;27.904;2023-02-11T08:18:54;31.08;;;19.92;;
67798;SDS011;54596;43.216;27.904;2023-02-11T08:21:21;27.25;;;17.83;;
67798;SDS011;54596;43.216;27.904;2023-02-11T08:23:48;31.67;;;19.23;;
67798;SDS011;54596;43.216;27.904;2023-02-11T08:26:15;50.42;;;21.67;;
67798;SDS011;54596;43.216;27.904;2023-02-11T08:28:43;34.22;;;21.05;;
67798;SDS011;54596;43.216;27.904;2023-02-11T08:31:11;37.10;;;21.83;;
67798;SDS011;54596;43.216;27.904;2023-02-11T08:33:57;37.80;;;20.98;;
67798;SDS011;54596;43.216;27.904;2023-02-11T08:36:25;33.45;;;21.35;;
67798;SDS011;54596;43.216;27.904;2023-02-11T08:38:53;40.30;;;21.60;;
67798;SDS011;54596;43.216;27.904;2023-02-11T08:41:20;29.70;;;20.08;;
67798;SDS011;54596;43.216;27.904;2023-02-11T08:43:46;35.03;;;21.60;;
67798;SDS011;54596;43.216;27.904;2023-02-11T08:46:12;36.50;;;23.13;;
67798;SDS011;54596;43.216;27.904;2023-02-11T08:48:40;32.05;;;19.83;;
67798;SDS011;54596;43.216;27.904;2023-02-11T08:51:09;33.35;;;20.42;;
67798;SDS011;54596;43.216;27.904;2023-02-11T08:53:37;32.53;;;20.92;;
67798;SDS011;54596;43.216;27.904;2023-02-11T08:56:03;32.33;;;20.50;;
67798;SDS011;54596;43.216;27.904;2023-02-11T08:58:30;34.90;;;19.25;;
67798;SDS011;54596;43.216;27.904;2023-02-11T09:00:56;32.95;;;19.90;;
67798;SDS011;54596;43.216;27.904;2023-02-11T09:03:22;36.35;;;20.35;;
67798;SDS011;54596;43.216;27.904;2023-02-11T09:05:49;32.25;;;19.10;;
67798;SDS011;54596;43.216;27.904;2023-02-11T09:08:17;33.33;;;19.52;;
67798;SDS011;54596;43.216;27.904;2023-02-11T09:10:43;28.58;;;20.17;;
67798;SDS011;54596;43.216;27.904;2023-02-11T09:13:08;29.80;;;19.38;;
67798;SDS011;54596;43.216;27.904;2023-02-11T09:15:34;33.22;;;22.05;;
67798;SDS011;54596;43.216;27.904;2023-02-11T09:18:00;31.90;;;20.73;;
67798;SDS011;54596;43.216;27.904;2023-02-11T09:20:27;30.92;;;19.40;;
67798;SDS011;54596;43.216;27.904;2023-02-11T09:22:53;29.17;;;19.63;;
67798;SDS011;54596;43.216;27.904;2023-02-11T09:25:20;34.30;;;21.27;;
67798;SDS011;54596;43.216;27.904;2023-02-11T09:27:46;34.08;;;21.40;;
67798;SDS011;54596;43.216;27.904;2023-02-11T09:30:11;77.57;;;23.55;;
67798;SDS011;54596;43.216;27.904;2023-02-11T09:32:37;35.28;;;21.02;;
67798;SDS011;54596;43.216;27.904;2023-02-11T09:35:03;33.35;;;20.60;;
67798;SDS011;54596;43.216;27.904;2023-02-11T09:37:29;32.28;;;20.75;;
67798;SDS011;54596;43.216;27.904;2023-02-11T09:39:54;32.10;;;21.35;;
67798;SDS011;54596;43.216;27.904;2023-02-11T09:45:17;34.90;;;23.02;;
67798;SDS011;54596;43.216;27.904;2023-02-11T09:47:53;33.95;;;23.17;;
67798;SDS011;54596;43.216;27.904;2023-02-11T09:53:05;30.77;;;20.98;;
67798;SDS011;54596;43.216;27.904;2023-02-11T09:55:35;31.17;;;20.83;;
67798;SDS011;54596;43.216;27.904;2023-02-11T09:58:13;33.20;;;20.92;;
67798;SDS011;54596;43.216;27.904;2023-02-11T10:00:46;33.58;;;21.42;;
67798;SDS011;54596;43.216;27.904;2023-02-11T10:03:23;33.35;;;21.67;;
67798;SDS011;54596;43.216;27.904;2023-02-11T10:14:00;36.35;;;22.05;;
67798;SDS011;54596;43.216;27.904;2023-02-11T10:17:06;40.50;;;23.33;;
67798;SDS011;54596;43.216;27.904;2023-02-11T10:22:19;37.15;;;23.45;;
67798;SDS011;54596;43.216;27.904;2023-02-11T10:24:57;34.47;;;21.52;;
67798;SDS011;54596;43.216;27.904;2023-02-11T10:27:29;33.38;;;22.15;;
67798;SDS011;54596;43.216;27.904;2023-02-11T10:30:06;36.70;;;22.05;;
67798;SDS011;54596;43.216;27.904;2023-02-11T10:32:54;35.85;;;22.23;;
67798;SDS011;54596;43.216;27.904;2023-02-11T10:35:26;34.42;;;22.67;;
67798;SDS011;54596;43.216;27.904;2023-02-11T10:37:53;36.03;;;22.48;;
67798;SDS011;54596;43.216;27.904;2023-02-11T10:40:24;33.05;;;21.42;;
67798;SDS011;54596;43.216;27.904;2023-02-11T10:42:52;31.05;;;20.23;;
67798;SDS011;54596;43.216;27.904;2023-02-11T10:47:51;32.92;;;21.42;;
67798;SDS011;54596;43.216;27.904;2023-02-11T10:50:20;39.47;;;22.85;;
67798;SDS011;54596;43.216;27.904;2023-02-11T10:55:55;37.05;;;22.67;;
67798;SDS011;54596;43.216;27.904;2023-02-11T10:58:25;33.70;;;21.90;;
67798;SDS011;54596;43.216;27.904;2023-02-11T11:00:53;33.95;;;21.45;;
67798;SDS011;54596;43.216;27.904;2023-02-11T11:03:21;33.72;;;19.73;;
67798;SDS011;54596;43.216;27.904;2023-02-11T11:05:59;35.10;;;21.40;;
67798;SDS011;54596;43.216;27.904;2023-02-11T11:09:09;30.15;;;18.83;;
67798;SDS011;54596;43.216;27.904;2023-02-11T11:11:16;35.58;;;20.45;;
67798;SDS011;54596;43.216;27.904;2023-02-11T11:16:23;30.17;;;18.77;;
67798;SDS011;54596;43.216;27.904;2023-02-11T11:21:40;37.55;;;22.73;;
67798;SDS011;54596;43.216;27.904;2023-02-11T11:24:09;34.42;;;20.13;;
67798;SDS011;54596;43.216;27.904;2023-02-11T11:27:01;32.90;;;20.83;;
67798;SDS011;54596;43.216;27.904;2023-02-11T11:29:38;30.67;;;20.10;;
67798;SDS011;54596;43.216;27.904;2023-02-11T11:34:37;28.20;;;19.20;;
67798;SDS011;54596;43.216;27.904;2023-02-11T11:37:12;29.35;;;18.00;;
67798;SDS011;54596;43.216;27.904;2023-02-11T11:39:47;27.55;;;18.27;;
67798;SDS011;54596;43.216;27.904;2023-02-11T11:44:59;28.48;;;19.65;;
67798;SDS011;54596;43.216;27.904;2023-02-11T11:47:31;29.25;;;18.25;;
67798;SDS011;54596;43.216;27.904;2023-02-11T11:55:25;31.58;;;20.25;;
67798;SDS011;54596;43.216;27.904;2023-02-11T11:57:53;34.05;;;22.08;;
67798;SDS011;54596;43.216;27.904;2023-02-11T12:00:35;28.90;;;18.90;;
67798;SDS011;54596;43.216;27.904;2023-02-11T12:20:37;29.85;;;18.33;;
67798;SDS011;54596;43.216;27.904;2023-02-11T12:28:23;23.13;;;15.23;;
67798;SDS011;54596;43.216;27.904;2023-02-11T12:50:17;31.65;;;17.98;;
67798;SDS011;54596;43.216;27.904;2023-02-11T12:55:21;24.15;;;16.10;;
67798;SDS011;54596;43.216;27.904;2023-02-11T12:57:53;23.38;;;12.80;;
67798;SDS011;54596;43.216;27.904;2023-02-11T13:00:25;20.63;;;13.10;;
67798;SDS011;54596;43.216;27.904;2023-02-11T13:03:11;23.50;;;14.80;;
67798;SDS011;54596;43.216;27.904;2023-02-11T13:08:12;21.08;;;14.15;;
67798;SDS011;54596;43.216;27.904;2023-02-11T13:10:49;27.55;;;18.77;;
67798;SDS011;54596;43.216;27.904;2023-02-11T13:13:28;30.15;;;19.75;;
67798;SDS011;54596;43.216;27.904;2023-02-11T13:16:01;41.38;;;29.45;;
67798;SDS011;54596;43.216;27.904;2023-02-11T13:26:28;25.52;;;15.45;;
67798;SDS011;54596;43.216;27.904;2023-02-11T13:32:04;18.90;;;11.07;;
67798;SDS011;54596;43.216;27.904;2023-02-11T13:37:05;22.52;;;13.27;;
67798;SDS011;54596;43.216;27.904;2023-02-11T13:39:55;22.00;;;13.07;;
67798;SDS011;54596;43.216;27.904;2023-02-11T13:42:46;23.00;;;13.30;;
67798;SDS011;54596;43.216;27.904;2023-02-11T13:45:27;25.40;;;16.48;;
67798;SDS011;54596;43.216;27.904;2023-02-11T13:47:57;45.88;;;34.42;;
67798;SDS011;54596;43.216;27.904;2023-02-11T13:50:24;44.75;;;31.00;;
67798;SDS011;54596;43.216;27.904;2023-02-11T13:52:57;31.48;;;18.38;;
67798;SDS011;54596;43.216;27.904;2023-02-11T13:55:25;27.55;;;18.25;;
67798;SDS011;54596;43.216;27.904;2023-02-11T14:09:07;22.33;;;14.27;;
67798;SDS011;54596;43.216;27.904;2023-02-11T14:14:26;20.48;;;12.60;;
67798;SDS011;54596;43.216;27.904;2023-02-11T14:22:02;30.60;;;19.60;;
67798;SDS011;54596;43.216;27.904;2023-02-11T14:26:56;28.33;;;16.52;;
67798;SDS011;54596;43.216;27.904;2023-02-11T14:43:45;26.50;;;15.40;;
67798;SDS011;54596;43.216;27.904;2023-02-11T14:45:55;20.45;;;13.18;;
67798;SDS011;54596;43.216;27.904;2023-02-11T14:48:29;30.42;;;15.25;;
67798;SDS011;54596;43.216;27.904;2023-02-11T14:53:45;33.03;;;17.27;;
67798;SDS011;54596;43.216;27.904;2023-02-11T14:56:23;29.33;;;15.48;;
67798;SDS011;54596;43.216;27.904;2023-02-11T14:58:51;25.38;;;15.20;;
67798;SDS011;54596;43.216;27.904;2023-02-11T15:01:23;24.90;;;14.05;;
67798;SDS011;54596;43.216;27.904;2023-02-11T15:03:59;24.77;;;14.40;;
67798;SDS011;54596;43.216;27.904;2023-02-11T15:06:28;30.90;;;18.42;;
67798;SDS011;54596;43.216;27.904;2023-02-11T15:09:12;32.55;;;18.52;;
67798;SDS011;54596;43.216;27.904;2023-02-11T15:11:46;26.08;;;16.83;;
67798;SDS011;54596;43.216;27.904;2023-02-11T15:14:21;29.05;;;18.60;;
67798;SDS011;54596;43.216;27.904;2023-02-11T15:16:53;37.28;;;22.08;;
67798;SDS011;54596;43.216;27.904;2023-02-11T15:19:23;35.92;;;22.40;;
67798;SDS011;54596;43.216;27.904;2023-02-11T15:21:50;29.58;;;18.20;;
67798;SDS011;54596;43.216;27.904;2023-02-11T15:24:22;29.02;;;18.27;;
67798;SDS011;54596;43.216;27.904;2023-02-11T15:29:44;33.03;;;19.30;;
67798;SDS011;54596;43.216;27.904;2023-02-11T15:32:12;31.38;;;19.02;;
67798;SDS011;54596;43.216;27.904;2023-02-11T15:34:40;34.30;;;18.48;;
67798;SDS011;54596;43.216;27.904;2023-02-11T15:37:09;30.92;;;18.30;;
67798;SDS011;54596;43.216;27.904;2023-02-11T15:39:39;31.63;;;18.92;;
67798;SDS011;54596;43.216;27.904;2023-02-11T15:42:25;32.30;;;18.25;;
67798;SDS011;54596;43.216;27.904;2023-02-11T15:45:09;28.05;;;16.92;;
67798;SDS011;54596;43.216;27.904;2023-02-11T15:47:38;30.23;;;17.33;;
67798;SDS011;54596;43.216;27.904;2023-02-11T15:50:07;39.17;;;20.65;;
67798;SDS011;54596;43.216;27.904;2023-02-11T15:52:44;30.85;;;17.30;;
67798;SDS011;54596;43.216;27.904;2023-02-11T15:55:12;28.02;;;16.00;;
67798;SDS011;54596;43.216;27.904;2023-02-11T15:57:47;32.60;;;17.75;;
67798;SDS011;54596;43.216;27.904;2023-02-11T16:00:16;30.52;;;18.10;;
67798;SDS011;54596;43.216;27.904;2023-02-11T16:02:44;29.27;;;18.15;;
67798;SDS011;54596;43.216;27.904;2023-02-11T16:08:12;30.73;;;18.23;;
67798;SDS011;54596;43.216;27.904;2023-02-11T16:10:52;32.78;;;20.45;;
67798;SDS011;54596;43.216;27.904;2023-02-11T16:13:22;32.88;;;20.73;;
67798;SDS011;54596;43.216;27.904;2023-02-11T16:15:50;36.72;;;22.90;;
67798;SDS011;54596;43.216;27.904;2023-02-11T16:18:32;37.97;;;23.27;;
67798;SDS011;54596;43.216;27.904;2023-02-11T16:21:03;41.53;;;25.40;;
67798;SDS011;54596;43.216;27.904;2023-02-11T16:23:39;41.35;;;26.95;;
67798;SDS011;54596;43.216;27.904;2023-02-11T16:28:34;57.90;;;33.47;;
67798;SDS011;54596;43.216;27.904;2023-02-11T16:31:03;56.75;;;33.97;;
67798;SDS011;54596;43.216;27.904;2023-02-11T16:33:30;51.17;;;29.75;;
67798;SDS011;54596;43.216;27.904;2023-02-11T16:35:56;51.53;;;29.73;;
67798;SDS011;54596;43.216;27.904;2023-02-11T16:38:26;51.20;;;32.08;;
67798;SDS011;54596;43.216;27.904;2023-02-11T16:40:51;62.05;;;38.03;;
67798;SDS011;54596;43.216;27.904;2023-02-11T16:43:17;64.90;;;38.35;;
67798;SDS011;54596;43.216;27.904;2023-02-11T16:45:44;61.00;;;38.42;;
67798;SDS011;54596;43.216;27.904;2023-02-11T16:48:14;76.80;;;46.03;;
67798;SDS011;54596;43.216;27.904;2023-02-11T16:50:45;82.65;;;49.00;;
67798;SDS011;54596;43.216;27.904;2023-02-11T16:53:14;91.50;;;55.85;;
67798;SDS011;54596;43.216;27.904;2023-02-11T16:55:43;94.88;;;60.17;;
67798;SDS011;54596;43.216;27.904;2023-02-11T16:58:09;93.57;;;58.97;;
67798;SDS011;54596;43.216;27.904;2023-02-11T17:00:35;81.30;;;53.70;;
67798;SDS011;54596;43.216;27.904;2023-02-11T17:03:03;77.20;;;50.47;;
67798;SDS011;54596;43.216;27.904;2023-02-11T17:05:30;75.95;;;49.88;;
67798;SDS011;54596;43.216;27.904;2023-02-11T17:07:56;72.57;;;48.08;;
67798;SDS011;54596;43.216;27.904;2023-02-11T17:10:22;72.72;;;46.72;;
67798;SDS011;54596;43.216;27.904;2023-02-11T17:12:49;70.50;;;45.65;;
67798;SDS011;54596;43.216;27.904;2023-02-11T17:15:15;65.03;;;45.10;;
67798;SDS011;54596;43.216;27.904;2023-02-11T17:17:42;73.45;;;46.35;;
67798;SDS011;54596;43.216;27.904;2023-02-11T17:20:10;68.22;;;46.70;;
67798;SDS011;54596;43.216;27.904;2023-02-11T17:22:36;71.97;;;45.05;;
67798;SDS011;54596;43.216;27.904;2023-02-11T17:25:02;65.78;;;44.83;;
67798;SDS011;54596;43.216;27.904;2023-02-11T17:27:28;66.15;;;42.70;;
67798;SDS011;54596;43.216;27.904;2023-02-11T17:29:54;60.15;;;42.08;;